Time;durP1;ratioP1;P1;durP2;ratioP2;P2;SDS_P1;SDS_P2;PMS_P1;PMS_P2;Temp;Humidity;BMP_temperature;BMP_pressure;BME280_temperature;BME280_humidity;BME280_pressure;Samples;Min_cycle;Max_cycle;Signal;HPM_P1;HPM_P2
2022/05/28 00:02:23;;;;;;;0.30;0.30;;;10.50;99.90;;;;;;5031785;28;20202;-68
2022/05/28 00:04:48;;;;;;;0.30;0.30;;;10.40;99.90;;;;;;5032203;28;20171;-70
2022/05/28 00:07:14;;;;;;;0.30;0.30;;;10.30;99.90;;;;;;5033283;28;20174;-69
2022/05/28 00:09:39;;;;;;;0.30;0.30;;;10.40;99.90;;;;;;5031890;28;20179;-69
2022/05/28 00:12:06;;;;;;;0.30;0.30;;;10.40;99.90;;;;;;5032892;28;20529;-70
2022/05/28 00:14:32;;;;;;;0.30;0.30;;;10.30;99.90;;;;;;5034098;28;20171;-70
2022/05/28 00:16:57;;;;;;;0.30;0.30;;;10.30;99.90;;;;;;5036809;28;20189;-70
2022/05/28 00:19:23;;;;;;;0.30;0.30;;;10.20;99.90;;;;;;5036617;28;20194;-70
2022/05/28 00:21:49;;;;;;;0.30;0.30;;;10.20;99.90;;;;;;5036751;28;20254;-70
2022/05/28 00:24:14;;;;;;;0.30;0.30;;;10.20;99.90;;;;;;5036361;28;20293;-70
2022/05/28 00:26:42;;;;;;;0.30;0.30;;;10.20;99.90;;;;;;5036800;28;20189;-70
2022/05/28 00:29:07;;;;;;;0.30;0.30;;;10.20;99.90;;;;;;5036537;28;20455;-68
2022/05/28 00:31:33;;;;;;;0.30;0.30;;;10.20;99.90;;;;;;5036382;28;20191;-67
2022/05/28 00:33:59;;;;;;;0.30;0.30;;;10.00;99.90;;;;;;5036465;28;20635;-69
2022/05/28 00:36:24;;;;;;;0.30;0.30;;;9.90;99.90;;;;;;5035267;28;20651;-70
2022/05/28 00:38:50;;;;;;;0.30;0.30;;;10.00;99.90;;;;;;5035187;28;20189;-70
2022/05/28 00:41:16;;;;;;;0.30;0.30;;;10.00;99.90;;;;;;5036368;28;20190;-70
2022/05/28 00:43:44;;;;;;;0.30;0.30;;;10.00;99.90;;;;;;5036016;28;20526;-70
2022/05/28 00:46:12;;;;;;;0.30;0.30;;;10.00;99.90;;;;;;5036235;28;20167;-70
2022/05/28 00:48:44;;;;;;;0.30;0.30;;;10.00;99.90;;;;;;5036248;28;20170;-71
2022/05/28 00:51:15;;;;;;;0.30;0.30;;;9.90;99.90;;;;;;5035962;28;20202;-70
2022/05/28 00:53:41;;;;;;;0.30;0.30;;;9.90;99.90;;;;;;5035930;28;20203;-69
2022/05/28 00:56:06;;;;;;;0.30;0.30;;;10.00;99.90;;;;;;5036007;28;20174;-71
2022/05/28 00:58:33;;;;;;;0.30;0.30;;;10.00;99.90;;;;;;5036035;28;20258;-70
2022/05/28 01:00:59;;;;;;;0.40;0.40;;;9.90;99.90;;;;;;5035904;28;20244;-70
2022/05/28 01:03:59;;;;;;;0.30;0.30;;;9.80;99.90;;;;;;5035626;28;20202;-70
2022/05/28 01:06:58;;;;;;;0.30;0.30;;;9.90;99.90;;;;;;5035854;28;20171;-68
2022/05/28 01:10:04;;;;;;;0.40;0.40;;;9.80;99.90;;;;;;5017086;28;20182;-70
2022/05/28 01:12:33;;;;;;;0.30;0.30;;;9.80;99.90;;;;;;5026903;28;20236;-69
2022/05/28 01:15:17;;;;;;;0.30;0.30;;;9.80;99.90;;;;;;5035678;28;20179;-69
2022/05/28 01:17:58;;;;;;;0.30;0.30;;;9.80;99.90;;;;;;5035826;28;20175;-69
2022/05/28 01:20:26;;;;;;;0.30;0.30;;;9.80;99.90;;;;;;5035316;28;20221;-70
2022/05/28 01:23:22;;;;;;;0.30;0.30;;;9.80;99.90;;;;;;5035143;28;20203;-70
2022/05/28 01:26:11;;;;;;;0.30;0.30;;;9.60;99.90;;;;;;5035357;28;20184;-68
2022/05/28 01:28:48;;;;;;;0.30;0.30;;;9.70;99.90;;;;;;5035377;28;20166;-70
2022/05/28 01:31:15;;;;;;;0.50;0.50;;;9.70;99.90;;;;;;5035371;28;20193;-69
2022/05/28 01:33:43;;;;;;;0.40;0.40;;;9.70;99.90;;;;;;5035154;28;20586;-69
2022/05/28 01:36:11;;;;;;;0.30;0.30;;;9.70;99.90;;;;;;5035319;28;20178;-69
2022/05/28 01:38:39;;;;;;;0.30;0.30;;;9.70;99.90;;;;;;5035303;28;20526;-70
2022/05/28 01:41:07;;;;;;;0.30;0.30;;;9.70;99.90;;;;;;5035051;28;20198;-69
2022/05/28 01:43:37;;;;;;;0.30;0.30;;;9.70;99.90;;;;;;5034836;28;20191;-69
2022/05/28 01:46:05;;;;;;;0.30;0.30;;;9.60;99.90;;;;;;5035295;28;20232;-69
2022/05/28 01:48:31;;;;;;;0.30;0.30;;;9.60;99.90;;;;;;5035055;28;20642;-68
2022/05/28 01:50:58;;;;;;;0.30;0.30;;;9.60;99.90;;;;;;5034889;28;20198;-69
2022/05/28 01:56:10;;;;;;;0.30;0.30;;;9.40;99.90;;;;;;5035119;28;20174;-68
2022/05/28 01:58:36;;;;;;;0.60;0.60;;;9.40;99.90;;;;;;5034839;28;20182;-68
2022/05/28 02:01:05;;;;;;;0.30;0.30;;;9.40;99.90;;;;;;5034741;28;20197;-70
2022/05/28 02:03:33;;;;;;;0.30;0.30;;;9.40;99.90;;;;;;5034668;28;20453;-71
2022/05/28 02:05:59;;;;;;;0.30;0.30;;;9.30;99.90;;;;;;5034893;28;20258;-69
2022/05/28 02:08:26;;;;;;;0.30;0.30;;;9.30;99.90;;;;;;5034754;28;20179;-69
2022/05/28 02:11:12;;;;;;;0.30;0.30;;;9.30;99.90;;;;;;5034497;28;20199;-68
2022/05/28 02:14:07;;;;;;;0.50;0.50;;;9.30;99.90;;;;;;5034499;28;20217;-69
2022/05/28 02:16:54;;;;;;;0.30;0.30;;;9.20;99.90;;;;;;5024248;28;20190;-69
2022/05/28 02:19:38;;;;;;;0.40;0.40;;;9.30;99.90;;;;;;5034619;28;20277;-70
2022/05/28 02:22:32;;;;;;;0.30;0.30;;;9.20;99.90;;;;;;5034186;28;20161;-69
2022/05/28 02:25:05;;;;;;;0.32;0.32;;;9.20;99.90;;;;;;5034531;28;20271;-70
2022/05/28 02:27:32;;;;;;;0.30;0.30;;;9.20;99.90;;;;;;5034287;28;20257;-69
2022/05/28 02:30:00;;;;;;;0.30;0.30;;;9.30;99.90;;;;;;5034212;28;20203;-68
2022/05/28 02:32:26;;;;;;;0.30;0.30;;;9.20;99.90;;;;;;5034003;28;20722;-70
2022/05/28 02:34:52;;;;;;;0.30;0.30;;;9.20;99.90;;;;;;5034304;28;20213;-69
2022/05/28 02:37:25;;;;;;;0.30;0.30;;;9.20;99.90;;;;;;5033701;28;20642;-70
2022/05/28 02:39:51;;;;;;;0.30;0.30;;;9.20;99.90;;;;;;5034110;28;20252;-69
2022/05/28 02:42:16;;;;;;;0.30;0.30;;;9.20;99.90;;;;;;5033788;28;20174;-70
2022/05/28 02:44:43;;;;;;;0.30;0.30;;;9.30;99.90;;;;;;5034036;28;20171;-70
2022/05/28 02:47:09;;;;;;;0.30;0.30;;;9.20;99.90;;;;;;5034033;28;20174;-68
2022/05/28 02:49:35;;;;;;;0.30;0.30;;;9.10;99.90;;;;;;5033950;28;20233;-71
2022/05/28 02:52:05;;;;;;;0.30;0.30;;;9.10;99.90;;;;;;5033698;28;20417;-69
2022/05/28 02:54:32;;;;;;;0.30;0.30;;;9.00;99.90;;;;;;5034033;28;20432;-68
2022/05/28 02:56:58;;;;;;;0.30;0.30;;;9.00;99.90;;;;;;5034194;28;20174;-69
2022/05/28 02:59:23;;;;;;;0.30;0.30;;;9.00;99.90;;;;;;5032490;28;20534;-69
2022/05/28 03:01:50;;;;;;;0.30;0.30;;;9.00;99.90;;;;;;5033716;28;20249;-69
2022/05/28 03:04:17;;;;;;;0.30;0.30;;;9.00;99.90;;;;;;5033608;28;20461;-71
2022/05/28 03:06:42;;;;;;;0.30;0.30;;;9.00;99.90;;;;;;5033766;28;20534;-70
2022/05/28 03:09:09;;;;;;;0.30;0.30;;;9.00;99.90;;;;;;5033541;28;20170;-68
2022/05/28 03:11:36;;;;;;;0.30;0.30;;;8.90;99.90;;;;;;5033531;28;20693;-70
2022/05/28 03:14:02;;;;;;;0.30;0.30;;;9.00;99.90;;;;;;5033338;28;20178;-70
2022/05/28 03:16:28;;;;;;;0.30;0.30;;;9.00;99.90;;;;;;5032405;28;20519;-70
2022/05/28 03:18:53;;;;;;;0.30;0.30;;;8.90;99.90;;;;;;5033509;28;20196;-70
2022/05/28 03:21:19;;;;;;;0.50;0.50;;;9.00;99.90;;;;;;5033385;28;20239;-69
2022/05/28 03:23:47;;;;;;;0.30;0.30;;;9.00;99.90;;;;;;5033208;28;20458;-69
2022/05/28 03:26:16;;;;;;;0.30;0.30;;;9.00;99.90;;;;;;5032218;28;20207;-70
2022/05/28 03:28:42;;;;;;;0.30;0.30;;;8.90;99.90;;;;;;5033470;28;20251;-68
2022/05/28 03:31:08;;;;;;;0.30;0.30;;;8.80;99.90;;;;;;5033401;28;20619;-70
2022/05/28 03:33:33;;;;;;;0.40;0.40;;;8.90;99.90;;;;;;5033222;28;20413;-69
2022/05/28 03:35:59;;;;;;;0.30;0.30;;;8.90;99.90;;;;;;5033479;28;20670;-71
2022/05/28 03:38:25;;;;;;;0.30;0.30;;;8.80;99.90;;;;;;5033597;28;20657;-70
2022/05/28 03:40:51;;;;;;;0.30;0.30;;;8.80;99.90;;;;;;5033228;28;20201;-70
2022/05/28 03:43:16;;;;;;;0.30;0.30;;;8.70;99.90;;;;;;5033174;28;20602;-68
2022/05/28 03:45:42;;;;;;;0.30;0.30;;;8.80;99.90;;;;;;5033484;28;20170;-70
2022/05/28 03:48:30;;;;;;;0.33;0.33;;;8.70;99.90;;;;;;5033546;28;20261;-70
2022/05/28 03:50:56;;;;;;;0.75;0.75;;;8.80;99.90;;;;;;5036672;28;20218;-70
2022/05/28 03:53:22;;;;;;;0.30;0.30;;;8.70;99.90;;;;;;5037070;28;20229;-70
2022/05/28 03:55:48;;;;;;;0.30;0.30;;;8.70;99.90;;;;;;5037256;28;20178;-70
2022/05/28 03:58:14;;;;;;;0.30;0.30;;;8.70;99.90;;;;;;5037184;28;20439;-69
2022/05/28 04:00:40;;;;;;;0.30;0.30;;;8.60;99.90;;;;;;5037050;28;20336;-69
2022/05/28 04:03:06;;;;;;;0.30;0.30;;;8.60;99.90;;;;;;5036748;28;20582;-69
2022/05/28 04:05:32;;;;;;;0.30;0.30;;;8.70;99.90;;;;;;5036944;28;20175;-70
2022/05/28 04:07:57;;;;;;;0.30;0.30;;;8.70;99.90;;;;;;5036980;28;20408;-68
2022/05/28 04:10:24;;;;;;;0.30;0.30;;;8.60;99.90;;;;;;5036779;28;20432;-70
2022/05/28 04:12:50;;;;;;;0.40;0.40;;;8.70;99.90;;;;;;5036771;28;20638;-68
2022/05/28 04:15:16;;;;;;;0.30;0.30;;;8.60;99.90;;;;;;5036983;28;20261;-71
2022/05/28 04:17:41;;;;;;;0.30;0.30;;;8.70;99.90;;;;;;5036881;28;20503;-70
2022/05/28 04:20:10;;;;;;;0.83;0.83;;;8.70;99.90;;;;;;5036426;28;20217;-70
2022/05/28 04:22:36;;;;;;;0.38;0.38;;;8.70;99.90;;;;;;5036598;28;20606;-69
2022/05/28 04:25:03;;;;;;;0.30;0.30;;;8.80;99.90;;;;;;5036699;28;20232;-69
2022/05/28 04:27:29;;;;;;;0.30;0.30;;;8.90;99.90;;;;;;5036682;28;20261;-71
2022/05/28 04:29:55;;;;;;;0.30;0.30;;;8.90;99.90;;;;;;5036581;28;20275;-70
2022/05/28 04:32:21;;;;;;;0.30;0.30;;;9.00;99.90;;;;;;5036787;28;20198;-69
2022/05/28 04:34:47;;;;;;;0.30;0.30;;;9.10;99.90;;;;;;5036439;28;20663;-70
2022/05/28 04:37:12;;;;;;;0.30;0.30;;;9.60;99.90;;;;;;5036600;28;20636;-70
2022/05/28 04:39:38;;;;;;;0.30;0.30;;;10.10;99.90;;;;;;5036363;28;20182;-69
2022/05/28 04:42:04;;;;;;;0.30;0.30;;;10.20;99.90;;;;;;5036146;28;20167;-69
2022/05/28 04:44:30;;;;;;;0.30;0.30;;;10.60;99.90;;;;;;5036330;28;20214;-70
2022/05/28 04:46:55;;;;;;;0.30;0.30;;;10.90;99.90;;;;;;5036387;28;20175;-71
2022/05/28 04:49:21;;;;;;;0.30;0.30;;;11.10;99.50;;;;;;5036082;28;20175;-69
2022/05/28 04:51:47;;;;;;;0.30;0.30;;;11.30;99.20;;;;;;5036275;28;20166;-71
2022/05/28 04:54:13;;;;;;;0.30;0.30;;;11.60;98.40;;;;;;5035997;28;20754;-68
2022/05/28 04:56:38;;;;;;;0.30;0.30;;;11.90;98.50;;;;;;5036158;28;20175;-70
2022/05/28 04:59:04;;;;;;;0.30;0.30;;;12.50;97.20;;;;;;5036139;28;20174;-69
2022/05/28 05:01:30;;;;;;;0.30;0.30;;;13.10;97.20;;;;;;5035532;28;20606;-70
2022/05/28 05:03:55;;;;;;;0.30;0.30;;;13.70;95.90;;;;;;5035533;28;20238;-69
2022/05/28 05:06:21;;;;;;;0.30;0.30;;;14.40;94.30;;;;;;5035888;28;20508;-70
2022/05/28 05:08:47;;;;;;;0.30;0.30;;;14.90;93.00;;;;;;5034639;28;20183;-69
2022/05/28 05:11:13;;;;;;;0.30;0.30;;;15.10;92.30;;;;;;5035744;28;20205;-70
2022/05/28 05:13:38;;;;;;;0.30;0.30;;;15.10;91.80;;;;;;5035588;28;20285;-70
2022/05/28 05:16:09;;;;;;;0.30;0.30;;;15.00;91.80;;;;;;5035783;28;20410;-70
2022/05/28 05:18:35;;;;;;;0.30;0.30;;;15.00;92.20;;;;;;5035479;28;20255;-70
2022/05/28 05:21:00;;;;;;;0.30;0.30;;;14.70;91.70;;;;;;5035476;28;20467;-69
2022/05/28 05:23:26;;;;;;;0.93;0.93;;;14.70;92.30;;;;;;5035339;28;20198;-70
2022/05/28 05:25:52;;;;;;;0.30;0.30;;;14.50;92.40;;;;;;5035585;28;20175;-69
2022/05/28 05:28:17;;;;;;;0.30;0.30;;;14.40;93.10;;;;;;5035570;28;20423;-70
2022/05/28 05:30:43;;;;;;;0.30;0.30;;;14.50;94.00;;;;;;5035257;28;20196;-70
2022/05/28 05:33:09;;;;;;;0.30;0.30;;;14.70;94.40;;;;;;5035269;28;20184;-68
2022/05/28 05:35:34;;;;;;;0.30;0.30;;;14.90;94.00;;;;;;5035327;28;20186;-70
2022/05/28 05:38:05;;;;;;;0.40;0.40;;;14.90;93.80;;;;;;5035479;28;20257;-71
2022/05/28 05:40:37;;;;;;;0.30;0.30;;;15.10;94.00;;;;;;5035253;28;20194;-70
2022/05/28 05:43:03;;;;;;;0.50;0.50;;;15.20;93.70;;;;;;5034884;28;20445;-71
2022/05/28 05:45:29;;;;;;;0.40;0.40;;;15.30;93.80;;;;;;5035070;28;20406;-69
2022/05/28 05:47:55;;;;;;;0.30;0.30;;;15.50;93.20;;;;;;5035071;28;20412;-69
2022/05/28 05:50:20;;;;;;;0.30;0.30;;;15.50;93.30;;;;;;5034952;28;20194;-69
2022/05/28 05:52:46;;;;;;;0.30;0.30;;;15.60;93.50;;;;;;5034920;28;20192;-69
2022/05/28 05:55:12;;;;;;;0.30;0.30;;;15.60;93.60;;;;;;5033698;28;20232;-69
2022/05/28 05:57:37;;;;;;;0.30;0.30;;;15.60;93.50;;;;;;5034898;28;20213;-70
2022/05/28 06:00:04;;;;;;;0.40;0.40;;;15.60;93.10;;;;;;5034572;28;20199;-69
2022/05/28 06:02:30;;;;;;;0.30;0.30;;;15.50;93.10;;;;;;5034422;28;20175;-71
2022/05/28 06:04:57;;;;;;;0.30;0.30;;;15.40;93.60;;;;;;5034840;28;20408;-70
2022/05/28 06:07:24;;;;;;;1.07;1.07;;;15.20;93.10;;;;;;5034771;28;20513;-71
2022/05/28 06:09:50;;;;;;;0.50;0.50;;;15.00;94.10;;;;;;5034639;28;20428;-69
2022/05/28 06:12:15;;;;;;;0.30;0.30;;;14.80;94.30;;;;;;5033346;28;20417;-70
2022/05/28 06:14:41;;;;;;;0.30;0.30;;;14.90;94.50;;;;;;5034216;28;20173;-70
2022/05/28 06:17:07;;;;;;;0.30;0.30;;;15.00;93.40;;;;;;5034436;28;20254;-70
2022/05/28 06:19:32;;;;;;;0.60;0.60;;;15.20;93.90;;;;;;5034185;28;20277;-71
2022/05/28 06:21:59;;;;;;;0.40;0.40;;;15.30;94.20;;;;;;5034287;28;20203;-69
2022/05/28 06:24:25;;;;;;;0.30;0.30;;;15.30;93.80;;;;;;5034390;28;20507;-71
2022/05/28 06:26:51;;;;;;;0.30;0.30;;;16.00;94.60;;;;;;5034388;28;20404;-70
2022/05/28 06:29:17;;;;;;;0.30;0.30;;;17.00;94.00;;;;;;5034246;28;20476;-70
2022/05/28 06:31:42;;;;;;;0.30;0.30;;;18.40;92.20;;;;;;5034082;28;20592;-70
2022/05/28 06:34:08;;;;;;;0.30;0.30;;;19.70;83.90;;;;;;5034081;28;20182;-71
2022/05/28 06:36:33;;;;;;;0.40;0.40;;;20.90;75.30;;;;;;5034309;28;20182;-70
2022/05/28 06:38:59;;;;;;;0.30;0.30;;;21.30;67.50;;;;;;5034106;28;20202;-70
2022/05/28 06:41:25;;;;;;;0.40;0.40;;;21.80;68.30;;;;;;5033881;28;20245;-70
2022/05/28 06:43:51;;;;;;;0.30;0.30;;;22.10;62.20;;;;;;5033806;28;20245;-70
2022/05/28 06:46:17;;;;;;;0.30;0.30;;;23.10;58.80;;;;;;5034193;28;20174;-71
2022/05/28 06:48:42;;;;;;;0.30;0.30;;;23.80;56.30;;;;;;5033998;28;20401;-69
2022/05/28 06:51:09;;;;;;;0.30;0.30;;;24.20;54.70;;;;;;5033847;28;20194;-72
2022/05/28 06:53:40;;;;;;;0.30;0.30;;;25.10;53.50;;;;;;5033626;28;20189;-71
2022/05/28 06:56:06;;;;;;;0.30;0.30;;;26.20;51.80;;;;;;5033674;28;20418;-70
2022/05/28 06:58:32;;;;;;;0.30;0.30;;;26.20;46.50;;;;;;5034007;28;20412;-70
2022/05/28 07:00:59;;;;;;;0.30;0.30;;;26.20;49.50;;;;;;5033577;28;20433;-69
2022/05/28 07:03:27;;;;;;;0.30;0.30;;;25.90;46.90;;;;;;5033766;28;20546;-70
2022/05/28 07:05:54;;;;;;;0.30;0.30;;;25.10;48.00;;;;;;5033664;28;20413;-71
2022/05/28 07:08:20;;;;;;;0.40;0.40;;;23.70;47.50;;;;;;5033795;28;20392;-69
2022/05/28 07:10:48;;;;;;;0.30;0.30;;;22.40;52.10;;;;;;5033470;28;20421;-70
2022/05/28 07:13:15;;;;;;;0.40;0.40;;;22.10;54.00;;;;;;5033362;28;20409;-70
2022/05/28 07:15:41;;;;;;;0.30;0.30;;;22.70;53.80;;;;;;5033477;28;20734;-70
2022/05/28 07:18:07;;;;;;;0.30;0.30;;;23.20;51.50;;;;;;5033515;28;20387;-71
2022/05/28 07:20:33;;;;;;;0.40;0.40;;;24.00;50.30;;;;;;5033359;28;20460;-71
2022/05/28 07:23:05;;;;;;;0.30;0.30;;;25.00;49.70;;;;;;5032873;28;20485;-71
2022/05/28 07:25:30;;;;;;;0.30;0.30;;;25.00;46.40;;;;;;5033218;28;20434;-71
2022/05/28 07:27:56;;;;;;;1.07;1.07;;;25.40;44.60;;;;;;5033557;28;20425;-70
2022/05/28 07:30:22;;;;;;;0.30;0.30;;;25.50;42.50;;;;;;5032077;28;20245;-71
2022/05/28 07:32:47;;;;;;;0.30;0.30;;;26.10;40.90;;;;;;5033138;28;20178;-71
2022/05/28 07:35:13;;;;;;;0.30;0.30;;;27.00;43.40;;;;;;5033386;28;20224;-71
2022/05/28 07:37:39;;;;;;;0.50;0.47;;;28.30;39.60;;;;;;5033365;28;20175;-70
2022/05/28 07:40:05;;;;;;;0.30;0.30;;;29.30;37.80;;;;;;5033150;28;20725;-71
2022/05/28 07:42:31;;;;;;;0.33;0.33;;;30.20;37.40;;;;;;5033089;28;20185;-72
2022/05/28 07:44:56;;;;;;;0.40;0.40;;;31.30;34.40;;;;;;5033291;28;20410;-70
2022/05/28 07:47:22;;;;;;;0.40;0.40;;;31.60;35.30;;;;;;5033312;28;20171;-71
2022/05/28 07:49:48;;;;;;;0.30;0.30;;;32.00;35.00;;;;;;5033260;28;20290;-72
2022/05/28 07:52:13;;;;;;;0.40;0.30;;;33.60;33.70;;;;;;5032917;28;20166;-71
2022/05/28 07:54:39;;;;;;;0.40;0.30;;;33.40;30.90;;;;;;5033067;28;20174;-71
2022/05/28 07:57:05;;;;;;;0.40;0.40;;;33.00;29.90;;;;;;5033060;28;20174;-72
2022/05/28 07:59:31;;;;;;;1.67;0.70;;;32.60;29.30;;;;;;5031813;28;20198;-72
2022/05/28 08:01:57;;;;;;;0.30;0.30;;;32.70;29.90;;;;;;5033106;28;20988;-72
2022/05/28 08:04:22;;;;;;;1.03;1.03;;;32.00;29.90;;;;;;5032937;28;20463;-70
2022/05/28 08:06:48;;;;;;;0.37;0.37;;;30.50;30.50;;;;;;5033163;28;20413;-72
2022/05/28 08:09:14;;;;;;;0.30;0.30;;;29.90;31.70;;;;;;5032980;28;20179;-72
2022/05/28 08:11:41;;;;;;;0.40;0.40;;;29.40;33.10;;;;;;5032786;28;20264;-71
2022/05/28 08:14:07;;;;;;;0.30;0.30;;;27.30;33.20;;;;;;5032815;28;20170;-70
2022/05/28 08:16:34;;;;;;;0.30;0.30;;;24.80;36.80;;;;;;5032956;28;20424;-71
2022/05/28 08:18:59;;;;;;;0.30;0.30;;;23.90;40.00;;;;;;5032730;28;20501;-70
2022/05/28 08:24:09;;;;;;;0.30;0.30;;;23.80;43.50;;;;;;5032754;28;20870;-71
2022/05/28 08:26:36;;;;;;;0.30;0.30;;;23.50;39.70;;;;;;5032884;28;20433;-71
2022/05/28 08:29:02;;;;;;;0.30;0.30;;;23.00;40.70;;;;;;5032897;28;20179;-71
2022/05/28 08:31:29;;;;;;;0.30;0.30;;;23.10;43.60;;;;;;5032700;28;20434;-71
2022/05/28 08:33:56;;;;;;;0.30;0.30;;;23.00;42.50;;;;;;5032566;28;20479;-71
2022/05/28 08:36:22;;;;;;;0.30;0.30;;;22.70;42.60;;;;;;5035148;28;20390;-71
2022/05/28 08:38:47;;;;;;;0.30;0.30;;;22.30;44.70;;;;;;5036371;28;20473;-70
2022/05/28 08:41:15;;;;;;;0.30;0.30;;;23.00;44.50;;;;;;5036463;28;20206;-71
2022/05/28 08:43:49;;;;;;;0.30;0.30;;;24.50;43.00;;;;;;5036206;28;20259;-70
2022/05/28 08:46:17;;;;;;;0.30;0.30;;;25.80;40.30;;;;;;5036342;28;20939;-71
2022/05/28 08:48:48;;;;;;;0.30;0.30;;;26.50;39.90;;;;;;5036059;28;20784;-70
2022/05/28 08:51:29;;;;;;;0.30;0.30;;;26.80;37.60;;;;;;5035971;28;20479;-71
2022/05/28 08:54:30;;;;;;;0.30;0.30;;;27.00;36.80;;;;;;5035972;28;20409;-72
2022/05/28 08:57:01;;;;;;;0.30;0.30;;;26.50;35.80;;;;;;5036276;28;20417;-70
2022/05/28 08:59:56;;;;;;;0.30;0.30;;;25.60;37.30;;;;;;5036007;28;20421;-71
2022/05/28 09:02:40;;;;;;;0.30;0.30;;;26.20;38.60;;;;;;5030855;28;20972;-71
2022/05/28 09:05:31;;;;;;;0.30;0.30;;;26.60;39.70;;;;;;5035866;28;20406;-70
2022/05/28 09:08:03;;;;;;;0.30;0.30;;;26.70;38.70;;;;;;5035970;28;20962;-71
2022/05/28 09:10:37;;;;;;;0.60;0.60;;;27.20;36.00;;;;;;5034463;28;20552;-71
2022/05/28 09:13:13;;;;;;;0.70;0.67;;;27.00;38.30;;;;;;5035457;28;20392;-72
2022/05/28 09:15:40;;;;;;;0.30;0.30;;;26.00;38.80;;;;;;5035724;28;20405;-71
2022/05/28 09:18:09;;;;;;;1.33;1.33;;;25.90;36.60;;;;;;5035752;28;20406;-71
2022/05/28 09:20:39;;;;;;;0.30;0.30;;;26.30;36.50;;;;;;5035332;28;20453;-71
2022/05/28 09:23:05;;;;;;;0.30;0.30;;;26.80;36.00;;;;;;5035281;28;20452;-71
2022/05/28 09:25:35;;;;;;;0.30;0.30;;;26.90;33.00;;;;;;5035654;28;20410;-70
2022/05/28 09:28:09;;;;;;;0.30;0.30;;;26.60;35.20;;;;;;5035524;28;20467;-71
2022/05/28 09:30:46;;;;;;;0.30;0.30;;;26.30;35.70;;;;;;5035294;28;21040;-70
2022/05/28 09:33:26;;;;;;;0.30;0.30;;;26.20;37.30;;;;;;5035165;28;20419;-71
2022/05/28 09:36:01;;;;;;;0.30;0.30;;;27.00;36.60;;;;;;5035396;28;20401;-70
2022/05/28 09:38:54;;;;;;;0.30;0.30;;;27.10;37.40;;;;;;5035225;28;20409;-71
2022/05/28 09:41:53;;;;;;;0.50;0.50;;;27.00;35.30;;;;;;5035086;28;20425;-70
2022/05/28 09:44:47;;;;;;;0.30;0.30;;;25.60;35.80;;;;;;5035056;28;20453;-71
2022/05/28 09:47:18;;;;;;;0.30;0.30;;;24.80;37.40;;;;;;5033756;28;20866;-71
2022/05/28 09:49:51;;;;;;;0.30;0.30;;;25.00;38.50;;;;;;5034973;28;20401;-71
2022/05/28 09:55:27;;;;;;;0.30;0.30;;;22.60;40.20;;;;;;5035093;28;20446;-70
2022/05/28 09:58:01;;;;;;;0.30;0.30;;;22.30;40.80;;;;;;5035004;28;20956;-70
2022/05/28 10:00:28;;;;;;;0.30;0.30;;;22.20;42.80;;;;;;5034848;28;20182;-69
2022/05/28 10:05:58;;;;;;;0.30;0.30;;;23.30;41.90;;;;;;4981569;28;20413;-70
2022/05/28 10:08:31;;;;;;;0.90;0.80;;;23.10;40.80;;;;;;5034902;28;20871;-71
2022/05/28 10:11:01;;;;;;;0.30;0.30;;;24.10;40.90;;;;;;5034522;28;20479;-69
2022/05/28 10:13:30;;;;;;;0.30;0.30;;;24.90;40.30;;;;;;5034449;28;20405;-69
2022/05/28 10:15:59;;;;;;;0.50;0.50;;;25.80;38.70;;;;;;5034634;28;20387;-71
2022/05/28 10:18:56;;;;;;;0.50;0.50;;;26.40;37.20;;;;;;5034467;28;20405;-70
2022/05/28 10:21:33;;;;;;;0.80;0.80;;;26.40;36.40;;;;;;5029893;28;20442;-71
2022/05/28 10:24:04;;;;;;;0.30;0.30;;;26.20;36.60;;;;;;5034195;28;20423;-70
2022/05/28 10:26:45;;;;;;;0.37;0.37;;;26.30;35.50;;;;;;5034546;28;20413;-70
2022/05/28 10:29:20;;;;;;;0.50;0.40;;;26.50;40.50;;;;;;5034475;28;20536;-71
2022/05/28 10:31:48;;;;;;;0.73;0.73;;;26.00;38.20;;;;;;5034414;28;20398;-70
2022/05/28 10:34:40;;;;;;;0.30;0.30;;;24.90;40.90;;;;;;5034562;28;20402;-70
2022/05/28 10:37:16;;;;;;;0.30;0.30;;;23.10;39.10;;;;;;5032895;28;20414;-69
2022/05/28 10:39:43;;;;;;;0.30;0.30;;;22.40;40.20;;;;;;5034237;28;20413;-70
2022/05/28 10:42:14;;;;;;;0.70;0.70;;;21.70;43.20;;;;;;5034001;28;20909;-71
2022/05/28 10:44:43;;;;;;;0.40;0.40;;;21.80;42.20;;;;;;5032583;28;20467;-72
2022/05/28 10:47:26;;;;;;;0.30;0.30;;;22.00;41.10;;;;;;5034023;28;20411;-71
2022/05/28 10:50:44;;;;;;;0.40;0.40;;;21.90;41.30;;;;;;5034015;28;20420;-70
2022/05/28 10:53:10;;;;;;;0.50;0.40;;;21.50;40.80;;;;;;5000153;28;20436;-69
2022/05/28 10:55:58;;;;;;;0.30;0.30;;;21.20;43.00;;;;;;5033941;28;20409;-70
2022/05/28 10:58:32;;;;;;;0.30;0.30;;;21.10;42.70;;;;;;5033650;28;20410;-69
2022/05/28 11:01:02;;;;;;;0.30;0.30;;;21.40;42.70;;;;;;5033609;28;20425;-70
2022/05/28 11:04:06;;;;;;;0.30;0.30;;;21.10;44.00;;;;;;5033399;28;20794;-71
2022/05/28 11:06:50;;;;;;;0.30;0.30;;;20.70;44.80;;;;;;5027120;28;20419;-69
2022/05/28 11:09:51;;;;;;;0.30;0.30;;;20.50;46.50;;;;;;5033685;28;20394;-71
2022/05/28 11:12:28;;;;;;;0.30;0.30;;;20.40;45.80;;;;;;5033285;28;20487;-70
2022/05/28 11:15:32;;;;;;;0.30;0.30;;;20.00;45.60;;;;;;5033659;28;20940;-70
2022/05/28 11:18:07;;;;;;;0.30;0.30;;;19.80;44.50;;;;;;5030663;28;20504;-70
2022/05/28 11:21:07;;;;;;;0.30;0.30;;;19.50;45.20;;;;;;5032940;28;20856;-71
2022/05/28 11:23:45;;;;;;;0.30;0.30;;;19.20;45.70;;;;;;5033283;28;20834;-70
2022/05/28 11:26:47;;;;;;;0.30;0.30;;;19.00;45.70;;;;;;5033570;28;20916;-70
2022/05/28 11:29:26;;;;;;;0.47;0.47;;;19.30;48.00;;;;;;5033691;28;20413;-71
2022/05/28 11:32:30;;;;;;;0.30;0.30;;;19.50;49.70;;;;;;5033458;28;20385;-71
2022/05/28 11:35:06;;;;;;;0.30;0.30;;;19.90;46.30;;;;;;5011814;28;20842;-69
2022/05/28 11:37:44;;;;;;;0.30;0.30;;;20.20;46.50;;;;;;5033548;28;20410;-70
2022/05/28 11:40:39;;;;;;;0.30;0.30;;;19.90;45.30;;;;;;5033582;28;20509;-70
2022/05/28 11:43:12;;;;;;;0.30;0.30;;;19.80;45.80;;;;;;5032625;28;20461;-70
2022/05/28 11:45:58;;;;;;;0.30;0.30;;;19.70;45.50;;;;;;5033170;28;20402;-70
2022/05/28 11:51:37;;;;;;;0.30;0.30;;;19.80;47.60;;;;;;5033262;28;20944;-70
2022/05/28 11:54:19;;;;;;;0.40;0.40;;;19.40;46.40;;;;;;5033072;28;20830;-69
2022/05/28 11:56:49;;;;;;;0.30;0.30;;;19.30;49.20;;;;;;5033350;28;20392;-72
2022/05/28 11:59:23;;;;;;;0.40;0.40;;;19.10;47.50;;;;;;5033241;28;20484;-69
2022/05/28 12:02:04;;;;;;;0.30;0.30;;;19.10;47.40;;;;;;5033072;28;20458;-70
2022/05/28 12:04:30;;;;;;;0.30;0.30;;;19.10;48.10;;;;;;5033127;28;20524;-70
2022/05/28 12:07:12;;;;;;;0.30;0.30;;;19.20;48.30;;;;;;5033246;28;20904;-69
2022/05/28 12:09:44;;;;;;;0.30;0.30;;;19.20;47.50;;;;;;5033083;28;20399;-71
2022/05/28 12:12:20;;;;;;;0.87;0.60;;;19.10;47.80;;;;;;5036520;28;20406;-71
2022/05/28 12:15:14;;;;;;;0.30;0.30;;;19.10;47.20;;;;;;5036839;28;20924;-70
2022/05/28 12:17:40;;;;;;;0.30;0.30;;;19.10;46.70;;;;;;5036776;28;20826;-70
2022/05/28 12:20:11;;;;;;;0.30;0.30;;;19.10;46.70;;;;;;5036598;28;20502;-70
2022/05/28 12:22:54;;;;;;;0.63;0.63;;;19.40;47.30;;;;;;5036491;28;20389;-70
2022/05/28 12:25:31;;;;;;;0.30;0.30;;;19.70;45.90;;;;;;5036552;28;20818;-71
2022/05/28 12:27:57;;;;;;;0.30;0.30;;;19.60;44.80;;;;;;5035140;28;20855;-70
2022/05/28 12:30:39;;;;;;;0.30;0.30;;;19.80;48.20;;;;;;5036363;28;20428;-71
2022/05/28 12:33:18;;;;;;;0.30;0.30;;;19.90;46.80;;;;;;5036245;28;20150;-71
2022/05/28 12:36:04;;;;;;;0.30;0.30;;;19.70;44.80;;;;;;5036678;28;20495;-71
2022/05/28 12:38:51;;;;;;;0.70;0.70;;;19.70;45.60;;;;;;5036321;28;20416;-70
2022/05/28 12:41:24;;;;;;;0.30;0.30;;;19.60;46.10;;;;;;5036330;28;20525;-70
2022/05/28 12:44:05;;;;;;;0.30;0.30;;;19.30;46.90;;;;;;5035876;28;20958;-72
2022/05/28 12:46:40;;;;;;;0.30;0.30;;;19.00;45.10;;;;;;5036401;28;20398;-68
2022/05/28 12:49:11;;;;;;;0.30;0.30;;;18.90;45.80;;;;;;5036338;28;20478;-69
2022/05/28 12:52:05;;;;;;;0.30;0.30;;;18.70;45.90;;;;;;5036061;28;20453;-69
2022/05/28 12:54:34;;;;;;;0.30;0.30;;;18.50;47.60;;;;;;5036051;28;20442;-70
2022/05/28 12:57:10;;;;;;;0.30;0.30;;;18.30;46.20;;;;;;5035822;28;20406;-71
2022/05/28 12:59:42;;;;;;;0.30;0.30;;;17.90;47.60;;;;;;5035957;28;20408;-71
2022/05/28 13:02:17;;;;;;;0.30;0.30;;;17.90;47.60;;;;;;5035643;28;20386;-70
2022/05/28 13:04:55;;;;;;;0.30;0.30;;;17.80;47.80;;;;;;5035886;28;20499;-70
2022/05/28 13:07:42;;;;;;;0.30;0.30;;;17.60;47.90;;;;;;5034543;28;20410;-71
2022/05/28 13:10:26;;;;;;;0.30;0.30;;;17.40;47.30;;;;;;5035752;28;20845;-70
2022/05/28 13:13:19;;;;;;;0.30;0.30;;;17.40;47.70;;;;;;5035582;28;20447;-71
2022/05/28 13:15:57;;;;;;;0.30;0.30;;;17.50;47.80;;;;;;5035736;28;20440;-69
2022/05/28 13:19:00;;;;;;;0.30;0.30;;;17.50;48.60;;;;;;5035886;28;20755;-70
2022/05/28 13:21:51;;;;;;;0.30;0.30;;;17.70;48.50;;;;;;5034990;28;21016;-69
2022/05/28 13:24:59;;;;;;;0.30;0.30;;;17.70;46.60;;;;;;5035348;28;20445;-70
2022/05/28 13:27:51;;;;;;;0.30;0.30;;;17.80;45.60;;;;;;5025285;28;20421;-71
2022/05/28 13:30:35;;;;;;;0.30;0.30;;;18.10;50.30;;;;;;5035400;28;20413;-70